TimeMDT,TemperatureF,Dew PointF,Humidity,Sea Level PressureIn,VisibilityMPH,Wind Direction,Wind SpeedMPH,Gust SpeedMPH,PrecipitationIn,Events,Conditions,WindDirDegrees,DateUTC
12:53 AM,48.9,26.1,41,29.53,10.0,West,15.0,-,N/A,,Clear,270,2013-04-08 06:53:00
1:53 AM,46.0,25.0,44,29.52,10.0,West,5.8,-,N/A,,Partly Cloudy,260,2013-04-08 07:53:00
2:53 AM,44.1,25.0,47,29.54,10.0,Calm,Calm,-,N/A,,Clear,0,2013-04-08 08:53:00
3:53 AM,39.0,25.0,57,29.53,10.0,Calm,Calm,-,N/A,,Clear,0,2013-04-08 09:53:00
4:53 AM,33.1,24.1,70,29.57,10.0,SSE,4.6,-,N/A,,Clear,160,2013-04-08 10:53:00
5:53 AM,39.9,26.1,58,29.57,10.0,NNE,6.9,-,N/A,,Clear,30,2013-04-08 11:53:00
6:53 AM,34.0,26.1,73,29.62,10.0,WNW,4.6,-,N/A,,Clear,300,2013-04-08 12:53:00
7:53 AM,39.9,34.0,79,29.65,10.0,NNW,16.1,-,N/A,,Mostly Cloudy,340,2013-04-08 13:53:00
8:01 AM,41.0,33.8,76,29.70,10.0,North,17.3,-,N/A,,Mostly Cloudy,350,2013-04-08 14:01:00
8:40 AM,37.4,35.6,93,29.72,6.0,North,21.9,25.3,N/A,,Overcast,350,2013-04-08 14:40:00
8:48 AM,35.6,33.8,93,29.72,5.0,North,17.3,25.3,N/A,,Overcast,360,2013-04-08 14:48:00
8:53 AM,36.0,33.1,89,29.70,4.0,North,18.4,27.6,N/A,,Overcast,360,2013-04-08 14:53:00
9:34 AM,35.6,30.2,81,29.73,10.0,North,13.8,24.2,N/A,,Overcast,360,2013-04-08 15:34:00
9:53 AM,35.1,28.9,78,29.73,10.0,North,25.3,31.1,N/A,,Overcast,360,2013-04-08 15:53:00
10:29 AM,33.8,26.6,75,29.77,10.0,North,19.6,28.8,N/A,,Overcast,360,2013-04-08 16:29:00
10:53 AM,32.0,26.1,79,29.80,10.0,NNW,12.7,23.0,N/A,,Overcast,340,2013-04-08 16:53:00
11:00 AM,32.0,26.6,80,29.80,10.0,NNW,11.5,18.4,N/A,,Overcast,330,2013-04-08 17:00:00
11:53 AM,32.0,23.0,69,29.81,10.0,North,13.8,-,N/A,,Overcast,350,2013-04-08 17:53:00
12:53 PM,28.9,23.0,78,29.79,6.0,NNW,10.4,24.2,0.00,Snow,Light Snow,330,2013-04-08 18:53:00
1:53 PM,28.9,21.0,72,29.83,10.0,North,13.8,20.7,0.00,,Overcast,350,2013-04-08 19:53:00
2:53 PM,27.0,19.9,75,29.85,10.0,North,18.4,23.0,N/A,,Overcast,360,2013-04-08 20:53:00
3:53 PM,25.0,19.0,78,29.89,1.8,NNW,19.6,24.2,0.00,Snow,Light Snow,340,2013-04-08 21:53:00
4:12 PM,24.8,17.6,74,29.85,2.0,North,16.1,24.2,0.00,Snow,Light Snow,350,2013-04-08 22:12:00
4:15 PM,24.8,17.6,74,29.85,1.8,North,16.1,24.2,0.00,Snow,Light Snow,350,2013-04-08 22:15:00
4:26 PM,23.0,19.4,86,29.85,1.0,North,13.8,-,0.00,Snow,Light Snow,350,2013-04-08 22:26:00
4:38 PM,23.0,17.6,80,29.86,0.8,NNW,19.6,23.0,0.00,Snow,Light Snow,330,2013-04-08 22:38:00
4:53 PM,23.0,18.0,81,29.95,1.2,North,19.6,25.3,0.00,Snow,Light Snow,350,2013-04-08 22:53:00
5:13 PM,21.2,17.6,86,29.88,0.8,North,16.1,-,0.00,Snow,Light Snow,350,2013-04-08 23:13:00
5:21 PM,23.0,17.6,80,29.89,0.5,NNW,16.1,-,0.00,Snow,Snow,330,2013-04-08 23:21:00
5:47 PM,21.2,17.6,86,29.89,0.5,North,16.1,21.9,0.00,Fog-Snow,Snow,360,2013-04-08 23:47:00
5:53 PM,21.0,17.1,85,29.96,0.8,North,19.6,26.5,0.00,Snow,Light Snow,350,2013-04-08 23:53:00
5:57 PM,21.2,15.8,80,29.89,1.2,North,18.4,27.6,0.00,Snow,Light Snow,350,2013-04-08 23:57:00
6:03 PM,21.2,15.8,80,29.90,3.0,NNW,16.1,27.6,0.00,Snow,Light Snow,340,2013-04-09 00:03:00
6:13 PM,21.2,15.8,80,29.91,1.8,NNW,16.1,25.3,0.00,Snow,Light Snow,340,2013-04-09 00:13:00
6:22 PM,21.2,15.8,80,29.91,0.8,NNW,16.1,-,0.00,Snow,Light Snow,330,2013-04-09 00:22:00
6:38 PM,19.4,15.8,86,29.93,0.2,NNW,21.9,-,0.00,Fog-Snow,Heavy Snow,340,2013-04-09 00:38:00
6:44 PM,19.4,15.8,86,29.92,0.2,NNW,21.9,28.8,0.00,Snow,Heavy Snow,340,2013-04-09 00:44:00
6:53 PM,19.9,15.1,81,30.02,0.2,NNW,17.3,-,0.00,Snow,Heavy Snow,340,2013-04-09 00:53:00
7:46 PM,19.4,14.0,80,29.95,0.8,NW,17.3,26.5,0.00,Snow,Light Snow,320,2013-04-09 01:46:00
7:53 PM,19.0,14.0,81,30.03,0.8,NNW,15.0,26.5,0.00,Snow,Light Snow,330,2013-04-09 01:53:00
7:57 PM,19.4,14.0,80,29.95,1.2,NNW,13.8,26.5,0.00,Snow,Light Snow,340,2013-04-09 01:57:00
8:03 PM,19.4,14.0,80,29.96,2.0,NW,11.5,21.9,0.00,Snow,Light Snow,320,2013-04-09 02:03:00
8:18 PM,17.6,12.2,79,29.96,1.2,NNW,16.1,24.2,0.00,Snow,Light Snow,340,2013-04-09 02:18:00
8:40 PM,17.6,12.2,79,29.96,3.0,NNW,15.0,21.9,0.00,Snow,Light Snow,330,2013-04-09 02:40:00
8:53 PM,18.0,12.0,78,30.08,6.0,NNW,19.6,26.5,0.00,Snow,Light Snow,340,2013-04-09 02:53:00
9:41 PM,17.6,10.4,73,29.98,2.5,North,20.7,29.9,0.00,Snow,Light Snow,350,2013-04-09 03:41:00
9:53 PM,16.0,10.9,81,30.10,3.0,North,19.6,31.1,0.00,Snow,Light Snow,350,2013-04-09 03:53:00
10:16 PM,15.8,10.4,79,29.95,1.8,North,25.3,35.7,0.00,Snow,Light Snow,360,2013-04-09 04:16:00
10:36 PM,15.8,10.4,79,29.96,1.0,North,27.6,36.8,0.00,Snow,Light Snow,360,2013-04-09 04:36:00
10:53 PM,15.1,10.9,84,30.11,0.8,North,19.6,33.4,0.00,Snow,Light Snow,350,2013-04-09 04:53:00
11:04 PM,15.8,10.4,79,29.99,0.8,North,17.3,28.8,0.00,Snow,Light Snow,360,2013-04-09 05:04:00
11:30 PM,15.8,10.4,79,29.99,1.0,North,13.8,20.7,0.00,Snow,Light Snow,350,2013-04-09 05:30:00
11:43 PM,15.8,10.4,79,30.00,0.8,WNW,8.1,25.3,0.00,Snow,Light Snow,300,2013-04-09 05:43:00
11:53 PM,15.1,10.0,80,30.15,0.8,NNW,9.2,-,0.00,Snow,Light Snow,330,2013-04-09 05:53:00